createdAt,value
2024-01-11T00:00:11.469Z,49.78
2024-01-11T00:01:14.659Z,51.63
2024-01-11T00:02:19.108Z,48.65
2024-01-11T00:03:22.118Z,52.38
2024-01-11T00:04:25.212Z,54.85
2024-01-11T00:05:28.285Z,45.53
2024-01-11T00:06:31.616Z,48.15
2024-01-11T00:07:34.315Z,41.55
2024-01-11T00:08:37.019Z,45.88
2024-01-11T00:09:43.798Z,43.60
2024-01-11T00:10:46.728Z,44.60
2024-01-11T00:11:50.234Z,42.45
2024-01-11T00:12:53.198Z,45.38
2024-01-11T00:13:55.913Z,41.53
2024-01-11T00:15:00.371Z,41.70
2024-01-11T00:16:03.774Z,40.00
2024-01-11T00:17:07.097Z,42.00
2024-01-11T00:18:09.887Z,39.35
2024-01-11T00:19:12.641Z,38.90
2024-01-11T00:20:15.794Z,42.72
2024-01-11T00:21:18.977Z,40.50
2024-01-11T00:22:22.015Z,42.60
2024-01-11T00:23:24.983Z,44.15
2024-01-11T00:24:27.971Z,38.53
2024-01-11T00:25:30.812Z,47.10
2024-01-11T00:26:33.719Z,40.10
2024-01-11T00:27:37.059Z,44.60
2024-01-11T00:28:40.341Z,44.38
2024-01-11T00:29:43.330Z,47.67
2024-01-11T00:30:46.401Z,50.35
2024-01-11T00:31:49.346Z,45.40
2024-01-11T00:32:52.820Z,43.45
2024-01-11T00:33:55.878Z,43.90
2024-01-11T00:34:59.137Z,42.78
2024-01-11T00:36:03.209Z,42.95
2024-01-11T00:37:06.183Z,45.40
2024-01-11T00:38:09.207Z,45.03
2024-01-11T00:39:13.032Z,42.83
2024-01-11T00:40:15.869Z,42.33
2024-01-11T00:41:18.997Z,41.45
2024-01-11T00:42:21.721Z,44.63
2024-01-11T00:43:24.900Z,40.65
2024-01-11T00:44:27.638Z,40.97
2024-01-11T00:45:30.642Z,42.15
2024-01-11T00:46:33.552Z,39.58
2024-01-11T00:47:36.550Z,47.07
2024-01-11T00:48:39.914Z,45.90
2024-01-11T00:49:44.102Z,39.30
2024-01-11T00:50:47.008Z,42.17
2024-01-11T00:51:49.919Z,41.72
2024-01-11T00:52:52.675Z,39.88
2024-01-11T00:53:55.947Z,40.63
2024-01-11T00:54:58.742Z,38.08
2024-01-11T00:56:02.117Z,38.67
2024-01-11T00:57:05.072Z,39.90
2024-01-11T00:58:07.944Z,43.97
2024-01-11T00:59:11.091Z,39.08
2024-01-11T01:00:17.372Z,44.00
2024-01-11T01:01:20.235Z,36.35
2024-01-11T01:02:23.363Z,36.88
2024-01-11T01:03:26.616Z,40.30
2024-01-11T01:04:29.884Z,39.17
2024-01-11T01:05:32.904Z,41.22
2024-01-11T01:06:35.706Z,35.60
2024-01-11T01:07:38.329Z,38.75
2024-01-11T01:08:41.145Z,41.43
2024-01-11T01:09:44.467Z,44.40
2024-01-11T01:10:47.384Z,36.17
2024-01-11T01:11:50.506Z,37.10
2024-01-11T01:12:53.497Z,38.97
2024-01-11T01:13:56.133Z,41.80
2024-01-11T01:14:59.112Z,41.97
2024-01-11T01:16:02.093Z,45.45
2024-01-11T01:17:05.043Z,41.75
2024-01-11T01:18:08.222Z,39.35
2024-01-11T01:19:12.292Z,43.60
2024-01-11T01:20:15.992Z,41.85
2024-01-11T01:21:18.638Z,41.50
2024-01-11T01:22:21.542Z,41.97
2024-01-11T01:23:24.300Z,40.88
2024-01-11T01:24:27.254Z,40.42
2024-01-11T01:25:30.512Z,43.30
2024-01-11T01:26:33.160Z,44.35
2024-01-11T01:27:35.947Z,42.15
2024-01-11T01:28:39.129Z,46.42
2024-01-11T01:29:42.102Z,43.80
2024-01-11T01:30:45.441Z,47.92
2024-01-11T01:31:48.388Z,45.20
2024-01-11T01:32:51.152Z,41.78
2024-01-11T01:33:54.055Z,44.22
2024-01-11T01:34:56.784Z,53.85
2024-01-11T01:35:59.756Z,50.33
2024-01-11T01:37:02.655Z,51.17
2024-01-11T01:38:05.619Z,51.17
2024-01-11T01:39:08.809Z,49.22
2024-01-11T01:40:13.060Z,46.27
2024-01-11T01:41:16.143Z,48.22
2024-01-11T01:42:19.176Z,49.80
2024-01-11T01:43:21.844Z,48.58
2024-01-11T01:44:24.761Z,48.35
2024-01-11T01:45:28.449Z,47.88
2024-01-11T01:46:31.871Z,51.25
2024-01-11T01:47:34.940Z,51.03
2024-01-11T01:48:38.791Z,49.88
2024-01-11T01:49:42.734Z,52.28
2024-01-11T01:50:51.510Z,49.70
2024-01-11T01:51:55.105Z,55.12
2024-01-11T01:52:58.847Z,51.85
2024-01-11T01:54:03.152Z,47.80
2024-01-11T01:55:07.965Z,49.83
2024-01-11T01:56:11.688Z,52.17
2024-01-11T01:57:16.698Z,56.80
2024-01-11T01:58:20.547Z,52.30
2024-01-11T01:59:26.867Z,53.33
2024-01-11T02:00:29.901Z,50.20
2024-01-11T02:01:34.182Z,47.83
2024-01-11T02:02:37.555Z,48.35
2024-01-11T02:03:41.517Z,49.70
2024-01-11T02:04:44.189Z,53.83
2024-01-11T02:05:47.962Z,54.72
2024-01-11T02:06:53.611Z,50.78
2024-01-11T02:07:58.755Z,51.72
2024-01-11T02:09:05.604Z,50.05
2024-01-11T02:10:08.925Z,50.03
2024-01-11T02:11:12.532Z,49.63
2024-01-11T02:12:16.584Z,54.83
2024-01-11T02:13:20.945Z,45.75
2024-01-11T02:14:24.366Z,49.05
2024-01-11T02:15:27.278Z,50.53
2024-01-11T02:16:30.149Z,48.85
2024-01-11T02:17:33.517Z,53.35
2024-01-11T02:18:36.454Z,50.17
2024-01-11T02:19:39.691Z,53.47
2024-01-11T02:20:42.706Z,51.50
2024-01-11T02:21:50.260Z,47.13
2024-01-11T02:22:59.791Z,55.00
2024-01-11T02:24:06.675Z,49.78
2024-01-11T02:25:09.647Z,52.83
2024-01-11T02:26:14.583Z,52.78
2024-01-11T02:27:17.545Z,48.60
2024-01-11T02:28:20.693Z,52.47
2024-01-11T02:29:23.599Z,51.75
2024-01-11T02:30:26.666Z,54.67
2024-01-11T02:31:29.935Z,56.47
2024-01-11T02:32:32.897Z,51.35
2024-01-11T02:33:36.084Z,50.93
2024-01-11T02:34:39.296Z,52.08
2024-01-11T02:35:47.613Z,54.58
2024-01-11T02:36:51.204Z,52.78
2024-01-11T02:37:54.351Z,50.15
2024-01-11T02:38:57.482Z,51.88
2024-01-11T02:40:00.361Z,55.05
2024-01-11T02:41:04.706Z,51.80
2024-01-11T02:42:07.686Z,54.65
2024-01-11T02:43:13.928Z,54.35
2024-01-11T02:44:16.911Z,56.87
2024-01-11T02:45:20.159Z,60.97
2024-01-11T02:46:23.330Z,56.47
2024-01-11T02:47:26.347Z,56.05
2024-01-11T02:48:32.490Z,53.03
2024-01-11T02:49:36.083Z,54.53
2024-01-11T02:50:40.069Z,53.47
2024-01-11T02:51:43.434Z,57.35
2024-01-11T02:52:46.352Z,54.78
2024-01-11T02:53:49.144Z,62.03
2024-01-11T02:54:51.797Z,54.10
2024-01-11T02:55:54.715Z,55.88
2024-01-11T02:56:58.514Z,57.58
2024-01-11T02:58:01.377Z,57.42
2024-01-11T02:59:04.452Z,60.70
2024-01-11T03:00:07.856Z,56.58
2024-01-11T03:01:10.690Z,58.47
2024-01-11T03:02:14.116Z,56.50
2024-01-11T03:03:17.143Z,53.85
2024-01-11T03:04:19.805Z,54.70
2024-01-11T03:05:22.754Z,54.83
2024-01-11T03:06:25.853Z,51.95
2024-01-11T03:07:29.754Z,54.67
2024-01-11T03:08:32.772Z,57.67
2024-01-11T03:09:35.927Z,58.42
2024-01-11T03:10:39.851Z,54.38
2024-01-11T03:11:42.595Z,52.38
2024-01-11T03:12:45.888Z,51.42
2024-01-11T03:13:48.705Z,54.88
2024-01-11T03:14:51.339Z,53.95
2024-01-11T03:15:54.352Z,48.73
2024-01-11T03:16:57.205Z,58.97
2024-01-11T03:18:00.446Z,49.78
2024-01-11T03:19:04.226Z,57.13
2024-01-11T03:20:08.599Z,56.80
2024-01-11T03:21:11.530Z,58.92
2024-01-11T03:22:15.168Z,55.53
2024-01-11T03:23:18.177Z,58.63
2024-01-11T03:24:21.190Z,62.95
2024-01-11T03:25:24.105Z,58.58
2024-01-11T03:26:27.032Z,58.43
2024-01-11T03:27:29.927Z,59.08
2024-01-11T03:28:33.203Z,54.40
2024-01-11T03:29:35.968Z,58.08
2024-01-11T03:30:39.038Z,60.58
2024-01-11T03:31:43.651Z,60.12
2024-01-11T03:32:46.443Z,53.45
2024-01-11T03:33:49.633Z,55.85
2024-01-11T03:34:52.682Z,60.12
2024-01-11T03:35:55.609Z,60.97
2024-01-11T03:36:58.627Z,59.07
2024-01-11T03:38:01.518Z,59.63
2024-01-11T03:39:04.543Z,62.05
2024-01-11T03:40:09.870Z,68.18
2024-01-11T03:41:12.730Z,74.70
2024-01-11T03:42:15.646Z,74.47
2024-01-11T03:43:19.319Z,68.65
2024-01-11T03:44:23.817Z,72.37
2024-01-11T03:45:26.795Z,71.07
2024-01-11T03:46:29.473Z,75.35
2024-01-11T03:47:32.108Z,70.53
2024-01-11T03:48:37.366Z,73.07
2024-01-11T03:49:40.380Z,70.90
2024-01-11T03:50:43.204Z,73.40
2024-01-11T03:51:45.900Z,70.85
2024-01-11T03:52:48.617Z,65.53
2024-01-11T03:53:51.590Z,70.75
2024-01-11T03:54:54.691Z,73.35
2024-01-11T03:55:57.341Z,67.30
2024-01-11T03:57:00.182Z,67.70
2024-01-11T03:58:03.074Z,64.10
2024-01-11T03:59:07.174Z,61.33
2024-01-11T04:00:11.789Z,62.90
2024-01-11T04:01:15.317Z,63.72
2024-01-11T04:02:18.430Z,60.30
2024-01-11T04:03:21.140Z,54.92
2024-01-11T04:04:24.057Z,57.97
2024-01-11T04:05:26.941Z,61.33
2024-01-11T04:06:30.308Z,57.62
2024-01-11T04:07:33.281Z,52.20
2024-01-11T04:08:36.638Z,51.00
2024-01-11T04:09:39.851Z,53.33
2024-01-11T04:10:42.468Z,54.40
2024-01-11T04:11:45.802Z,56.20
2024-01-11T04:12:49.352Z,56.10
2024-01-11T04:13:52.061Z,64.45
2024-01-11T04:14:54.741Z,57.05
2024-01-11T04:15:58.346Z,58.33
2024-01-11T04:17:01.548Z,55.80
2024-01-11T04:18:04.957Z,59.33
2024-01-11T04:19:07.873Z,55.23
2024-01-11T04:20:11.302Z,61.08
2024-01-11T04:21:24.584Z,55.35
2024-01-11T04:22:29.705Z,59.30
2024-01-11T04:23:32.426Z,58.85
2024-01-11T04:24:35.135Z,62.70
2024-01-11T04:25:38.039Z,59.97
2024-01-11T04:26:40.833Z,58.97
2024-01-11T04:27:43.777Z,62.00
2024-01-11T04:28:47.678Z,63.95
2024-01-11T04:29:51.087Z,58.67
2024-01-11T04:30:53.930Z,60.30
2024-01-11T04:31:56.825Z,61.13
2024-01-11T04:33:00.466Z,59.90
2024-01-11T04:34:03.718Z,61.33
2024-01-11T04:35:07.025Z,57.42
2024-01-11T04:36:10.876Z,57.67
2024-01-11T04:37:13.872Z,58.83
2024-01-11T04:38:17.119Z,57.15
2024-01-11T04:39:21.375Z,60.30
2024-01-11T04:40:26.224Z,61.07
2024-01-11T04:41:29.405Z,58.72
2024-01-11T04:42:32.315Z,60.63
2024-01-11T04:43:40.474Z,60.42
2024-01-11T04:44:43.446Z,58.08
2024-01-11T04:45:46.384Z,58.65
2024-01-11T04:46:49.345Z,56.72
2024-01-11T04:47:53.132Z,56.17
2024-01-11T04:48:56.683Z,63.38
2024-01-11T04:50:00.304Z,60.60
2024-01-11T04:51:03.438Z,61.10
2024-01-11T04:52:07.185Z,62.70
2024-01-11T04:53:10.196Z,60.33
2024-01-11T04:54:13.358Z,59.33
2024-01-11T04:55:16.265Z,59.92
2024-01-11T04:56:19.299Z,59.15
2024-01-11T04:57:22.010Z,55.63
2024-01-11T04:58:24.975Z,58.17
2024-01-11T04:59:28.342Z,55.95
2024-01-11T05:00:31.360Z,59.90
2024-01-11T05:01:34.290Z,62.37
2024-01-11T05:02:37.078Z,57.65
2024-01-11T05:03:40.158Z,64.57
2024-01-11T05:04:43.422Z,73.80
2024-01-11T05:05:46.329Z,74.85
2024-01-11T05:06:49.351Z,78.20
2024-01-11T05:07:52.388Z,83.45
2024-01-11T05:08:55.417Z,91.07
2024-01-11T05:09:58.667Z,95.50
2024-01-11T05:11:01.669Z,102.07
2024-01-11T05:12:05.921Z,97.53
2024-01-11T05:13:08.820Z,100.82
2024-01-11T05:14:11.728Z,101.12
2024-01-11T05:15:14.913Z,108.00
2024-01-11T05:16:25.023Z,104.87
2024-01-11T05:17:28.424Z,112.85
2024-01-11T05:18:34.708Z,104.93
2024-01-11T05:19:38.211Z,103.50
2024-01-11T05:20:41.818Z,109.45
2024-01-11T05:21:44.807Z,100.30
2024-01-11T05:22:47.596Z,84.00
2024-01-11T05:23:50.504Z,83.40
2024-01-11T05:24:53.363Z,86.22
2024-01-11T05:25:56.584Z,88.78
2024-01-11T05:27:00.404Z,83.40
2024-01-11T05:28:04.893Z,82.40
2024-01-11T05:29:07.703Z,79.12
2024-01-11T05:30:11.184Z,77.97
2024-01-11T05:31:16.546Z,76.05
2024-01-11T05:32:19.984Z,72.07
2024-01-11T05:33:22.715Z,70.93
2024-01-11T05:34:25.707Z,65.45
2024-01-11T05:35:28.946Z,70.28
2024-01-11T05:36:32.262Z,72.10
2024-01-11T05:37:35.253Z,75.65
2024-01-11T05:38:40.320Z,73.80
2024-01-11T05:39:46.161Z,80.70
2024-01-11T05:40:48.812Z,85.45
2024-01-11T05:41:52.040Z,91.43
2024-01-11T05:42:54.919Z,92.95
2024-01-11T05:43:57.657Z,86.93
2024-01-11T05:45:00.962Z,85.12
2024-01-11T05:46:04.585Z,83.68
2024-01-11T05:47:07.696Z,85.57
2024-01-11T05:48:12.308Z,87.68
2024-01-11T05:49:15.314Z,91.05
2024-01-11T05:50:18.448Z,91.28
2024-01-11T05:51:21.189Z,94.78
2024-01-11T05:52:24.077Z,101.60
2024-01-11T05:53:28.753Z,102.90
2024-01-11T05:54:31.546Z,106.63
2024-01-11T05:55:34.539Z,107.10
2024-01-11T05:56:37.554Z,94.85
2024-01-11T05:57:40.715Z,93.75
2024-01-11T05:58:43.468Z,98.12
2024-01-11T05:59:46.482Z,99.40
2024-01-11T06:00:49.347Z,106.97
2024-01-11T06:01:52.276Z,101.35
2024-01-11T06:02:54.925Z,105.35
2024-01-11T06:03:57.738Z,108.12
2024-01-11T06:05:00.713Z,100.63
2024-01-11T06:06:04.850Z,96.93
2024-01-11T06:07:08.211Z,95.40
2024-01-11T06:08:11.188Z,95.78
2024-01-11T06:09:14.105Z,94.68
2024-01-11T06:10:17.023Z,99.30
2024-01-11T06:11:19.761Z,99.87
2024-01-11T06:12:22.956Z,113.15
2024-01-11T06:13:25.957Z,115.25
2024-01-11T06:14:28.677Z,114.60
2024-01-11T06:15:33.273Z,116.63
2024-01-11T06:16:37.978Z,108.63
2024-01-11T06:17:41.694Z,101.25
2024-01-11T06:18:44.910Z,103.32
2024-01-11T06:19:47.846Z,91.70
2024-01-11T06:20:50.530Z,93.12
2024-01-11T06:21:53.407Z,86.50
2024-01-11T06:22:56.700Z,85.15
2024-01-11T06:23:59.688Z,83.45
2024-01-11T06:25:02.565Z,84.95
2024-01-11T06:26:05.770Z,81.57
2024-01-11T06:27:11.670Z,69.55
2024-01-11T06:28:17.845Z,71.50
2024-01-11T06:29:20.582Z,70.15
2024-01-11T06:30:26.630Z,80.00
2024-01-11T06:31:30.940Z,63.90
2024-01-11T06:32:33.657Z,60.97
2024-01-11T06:33:38.501Z,64.75
2024-01-11T06:34:46.872Z,64.87
2024-01-11T06:35:49.878Z,60.05
2024-01-11T06:36:53.667Z,55.13
2024-01-11T06:37:57.017Z,54.65
2024-01-11T06:39:00.189Z,51.70
2024-01-11T06:40:04.836Z,54.95
2024-01-11T06:41:08.098Z,61.15
2024-01-11T06:42:11.115Z,56.37
2024-01-11T06:43:14.129Z,51.92
2024-01-11T06:44:17.488Z,56.03
2024-01-11T06:45:20.290Z,61.85
2024-01-11T06:46:23.380Z,59.55
2024-01-11T06:47:26.910Z,62.93
2024-01-11T06:48:29.799Z,56.97
2024-01-11T06:49:33.176Z,66.25
2024-01-11T06:50:36.218Z,64.87
2024-01-11T06:51:40.323Z,65.03
2024-01-11T06:52:44.120Z,65.53
2024-01-11T06:53:47.026Z,105.60
2024-01-11T06:54:50.122Z,213.32
2024-01-11T06:55:53.963Z,254.38
2024-01-11T06:56:56.847Z,272.05
2024-01-11T06:58:00.307Z,242.13
2024-01-11T06:59:03.324Z,221.98
2024-01-11T07:00:08.909Z,192.15
2024-01-11T07:01:12.221Z,158.98
2024-01-11T07:02:15.375Z,148.57
2024-01-11T07:03:19.302Z,129.70
2024-01-11T07:04:22.133Z,106.55
2024-01-11T07:05:25.315Z,102.60
2024-01-11T07:06:28.865Z,103.38
2024-01-11T07:07:31.868Z,87.50
2024-01-11T07:08:34.718Z,82.53
2024-01-11T07:09:37.657Z,83.00
2024-01-11T07:10:41.598Z,73.95
2024-01-11T07:11:45.525Z,68.65
2024-01-11T07:12:49.212Z,61.60
2024-01-11T07:13:52.114Z,71.45
2024-01-11T07:14:54.969Z,63.97
2024-01-11T07:15:59.048Z,68.60
2024-01-11T07:17:01.727Z,64.40
2024-01-11T07:18:04.863Z,65.03
2024-01-11T07:19:07.990Z,65.97
2024-01-11T07:20:11.613Z,67.18
2024-01-11T07:21:21.375Z,65.75
2024-01-11T07:22:24.007Z,70.18
2024-01-11T07:23:27.634Z,67.10
2024-01-11T07:24:38.407Z,71.12
2024-01-11T07:25:42.266Z,65.57
2024-01-11T07:26:45.802Z,71.47
2024-01-11T07:27:48.510Z,66.53
2024-01-11T07:28:51.738Z,62.92
2024-01-11T07:29:54.468Z,67.63
2024-01-11T07:30:57.383Z,65.85
2024-01-11T07:32:01.303Z,73.32
2024-01-11T07:33:05.891Z,66.62
2024-01-11T07:34:09.049Z,68.53
2024-01-11T07:35:16.494Z,66.45
2024-01-11T07:36:21.726Z,66.70
2024-01-11T07:37:26.865Z,61.47
2024-01-11T07:38:29.519Z,61.20
2024-01-11T07:39:32.485Z,56.42
2024-01-11T07:40:36.759Z,58.87
2024-01-11T07:41:40.150Z,57.45
2024-01-11T07:42:44.037Z,56.15
2024-01-11T07:43:53.591Z,56.72
2024-01-11T07:44:57.734Z,57.97
2024-01-11T07:46:00.627Z,61.17
2024-01-11T07:47:03.426Z,53.90
2024-01-11T07:48:06.983Z,60.22
2024-01-11T07:49:09.952Z,61.95
2024-01-11T07:50:13.640Z,54.63
2024-01-11T07:51:16.736Z,50.80
2024-01-11T07:52:21.467Z,57.20
2024-01-11T07:53:24.866Z,53.20
2024-01-11T07:54:27.869Z,57.80
2024-01-11T07:55:30.735Z,55.53
2024-01-11T07:56:33.910Z,58.70
2024-01-11T07:57:37.047Z,56.60
2024-01-11T07:58:43.620Z,57.28
2024-01-11T07:59:47.278Z,55.03
2024-01-11T08:00:50.359Z,57.13
2024-01-11T08:01:54.877Z,61.47
2024-01-11T08:02:58.144Z,62.03
2024-01-11T08:04:03.963Z,59.70
2024-01-11T08:05:07.364Z,62.33
2024-01-11T08:06:10.707Z,66.53
2024-01-11T08:07:13.780Z,64.35
2024-01-11T08:08:16.332Z,64.15
2024-01-11T08:09:19.359Z,60.67
2024-01-11T08:10:22.015Z,60.90
2024-01-11T08:11:24.715Z,63.55
2024-01-11T08:12:27.863Z,63.30
2024-01-11T08:13:32.711Z,65.78
2024-01-11T08:14:35.628Z,66.18
2024-01-11T08:15:39.119Z,71.05
2024-01-11T08:16:41.957Z,66.80
2024-01-11T08:17:49.149Z,65.50
2024-01-11T08:18:52.387Z,67.12
2024-01-11T08:19:57.275Z,66.37
2024-01-11T08:21:00.319Z,62.17
2024-01-11T08:22:03.549Z,61.33
2024-01-11T08:23:07.916Z,58.07
2024-01-11T08:24:10.749Z,59.38
2024-01-11T08:25:14.311Z,65.93
2024-01-11T08:26:17.482Z,58.42
2024-01-11T08:27:20.616Z,63.15
2024-01-11T08:28:23.639Z,58.80
2024-01-11T08:29:26.585Z,59.47
2024-01-11T08:30:29.841Z,65.90
2024-01-11T08:31:34.412Z,59.72
2024-01-11T08:32:40.907Z,65.47
2024-01-11T08:33:44.389Z,66.27
2024-01-11T08:34:47.580Z,66.75
2024-01-11T08:35:50.266Z,68.75
2024-01-11T08:36:53.214Z,65.75
2024-01-11T08:37:56.153Z,61.42
2024-01-11T08:38:59.038Z,74.90
2024-01-11T08:40:01.621Z,68.00
2024-01-11T08:41:04.836Z,62.33
2024-01-11T08:42:07.718Z,67.00
2024-01-11T08:43:11.670Z,64.47
2024-01-11T08:44:14.960Z,62.17
2024-01-11T08:45:19.321Z,68.72
2024-01-11T08:46:26.872Z,63.20
2024-01-11T08:47:29.481Z,64.00
2024-01-11T08:48:32.477Z,64.00
2024-01-11T08:49:39.647Z,65.57
2024-01-11T08:50:42.552Z,66.07
2024-01-11T08:51:45.386Z,61.95
2024-01-11T08:52:48.133Z,63.03
2024-01-11T08:53:51.119Z,67.22
2024-01-11T08:54:54.402Z,61.70
2024-01-11T08:55:57.011Z,64.85
2024-01-11T08:57:00.282Z,61.00
2024-01-11T08:58:03.199Z,62.42
2024-01-11T08:59:06.082Z,65.12
2024-01-11T09:00:09.551Z,67.72
2024-01-11T09:01:12.563Z,65.70
2024-01-11T09:02:18.997Z,69.35
2024-01-11T09:03:23.989Z,68.50
2024-01-11T09:04:26.835Z,67.10
2024-01-11T09:05:30.238Z,69.90
2024-01-11T09:06:34.885Z,62.88
2024-01-11T09:07:37.609Z,64.35
2024-01-11T09:08:42.389Z,58.42
2024-01-11T09:09:51.306Z,61.03
2024-01-11T09:11:00.674Z,58.38
2024-01-11T09:12:03.959Z,57.30
2024-01-11T09:13:06.611Z,51.13
2024-01-11T09:14:12.419Z,54.00
2024-01-11T09:15:15.896Z,54.47
2024-01-11T09:16:19.093Z,55.57
2024-01-11T09:17:22.928Z,58.10
2024-01-11T09:18:26.207Z,53.25
2024-01-11T09:19:29.207Z,62.33
2024-01-11T09:20:32.139Z,60.65
2024-01-11T09:21:35.076Z,60.30
2024-01-11T09:22:37.683Z,65.47
2024-01-11T09:23:40.640Z,64.75
2024-01-11T09:24:43.556Z,61.63
2024-01-11T09:25:46.468Z,69.50
2024-01-11T09:26:51.219Z,63.10
2024-01-11T09:27:54.157Z,67.75
2024-01-11T09:28:57.038Z,68.95
2024-01-11T09:29:59.674Z,67.30
2024-01-11T09:31:03.265Z,62.97
2024-01-11T09:32:06.987Z,64.97
2024-01-11T09:33:09.852Z,62.20
2024-01-11T09:34:13.778Z,67.60
2024-01-11T09:35:16.990Z,64.85
2024-01-11T09:36:20.581Z,71.20
2024-01-11T09:37:23.876Z,62.57
2024-01-11T09:38:26.832Z,63.38
2024-01-11T09:39:30.094Z,67.62
2024-01-11T09:40:32.782Z,76.75
2024-01-11T09:41:39.215Z,75.35
2024-01-11T09:42:43.275Z,76.30
2024-01-11T09:43:50.022Z,70.55
2024-01-11T09:44:52.996Z,73.03
2024-01-11T09:45:57.474Z,70.97
2024-01-11T09:47:03.149Z,65.35
2024-01-11T09:48:09.465Z,66.73
2024-01-11T09:49:12.826Z,64.22
2024-01-11T09:50:19.267Z,67.40
2024-01-11T09:51:23.137Z,68.72
2024-01-11T09:52:27.399Z,69.60
2024-01-11T09:53:34.021Z,73.95
2024-01-11T09:54:39.146Z,68.12
2024-01-11T09:55:41.962Z,65.93
2024-01-11T09:56:45.197Z,63.72
2024-01-11T09:57:57.648Z,68.00
2024-01-11T09:59:01.194Z,64.67
2024-01-11T10:00:08.627Z,63.15
2024-01-11T10:01:13.573Z,60.03
2024-01-11T10:02:16.841Z,64.80
2024-01-11T10:03:19.749Z,64.60
2024-01-11T10:04:22.751Z,62.75
2024-01-11T10:05:25.532Z,59.60
2024-01-11T10:06:29.782Z,64.32
2024-01-11T10:07:34.866Z,63.35
2024-01-11T10:08:37.736Z,55.63
2024-01-11T10:09:40.402Z,62.13
2024-01-11T10:10:43.931Z,56.22
2024-01-11T10:11:48.022Z,66.50
2024-01-11T10:12:50.914Z,60.60
2024-01-11T10:14:00.666Z,64.00
2024-01-11T10:15:11.296Z,57.58
2024-01-11T10:16:16.526Z,58.45
2024-01-11T10:17:22.863Z,62.55
2024-01-11T10:18:27.272Z,68.35
2024-01-11T10:19:30.785Z,63.60
2024-01-11T10:20:34.030Z,66.77
2024-01-11T10:21:40.429Z,75.22
2024-01-11T10:22:47.646Z,72.35
2024-01-11T10:23:51.485Z,72.03
2024-01-11T10:25:13.394Z,69.22
2024-01-11T10:26:20.425Z,70.18
2024-01-11T10:27:28.012Z,59.13
2024-01-11T10:28:31.438Z,67.10
2024-01-11T10:29:37.708Z,66.97
2024-01-11T10:30:42.083Z,61.08
2024-01-11T10:31:45.035Z,57.67
2024-01-11T10:32:48.771Z,65.78
2024-01-11T10:33:52.400Z,56.92
2024-01-11T10:34:55.509Z,57.47
2024-01-11T10:35:58.217Z,58.87
2024-01-11T10:37:01.320Z,56.78
2024-01-11T10:38:12.915Z,56.78
2024-01-11T10:39:18.288Z,53.50
2024-01-11T10:40:25.381Z,57.25
2024-01-11T10:41:30.460Z,56.35
2024-01-11T10:42:36.146Z,58.97
2024-01-11T10:43:39.794Z,54.50
2024-01-11T10:44:48.064Z,58.10
2024-01-11T10:45:58.198Z,63.78
2024-01-11T10:47:04.909Z,66.10
2024-01-11T10:48:14.320Z,67.95
2024-01-11T10:49:19.477Z,67.72
2024-01-11T10:50:25.113Z,60.67
2024-01-11T10:51:32.576Z,63.47
2024-01-11T10:52:47.093Z,65.12
2024-01-11T10:53:52.863Z,58.17
2024-01-11T10:54:57.160Z,63.87
2024-01-11T10:56:01.312Z,62.00
2024-01-11T10:57:06.606Z,61.85
2024-01-11T10:58:11.745Z,61.78
2024-01-11T10:59:14.890Z,63.10
2024-01-11T11:00:19.553Z,61.22
2024-01-11T11:01:24.427Z,61.58
2024-01-11T11:02:27.719Z,64.85
2024-01-11T11:03:32.866Z,57.03
2024-01-11T11:04:36.994Z,59.10
2024-01-11T11:05:40.665Z,64.82
2024-01-11T11:06:44.470Z,62.38
2024-01-11T11:07:50.844Z,59.58
2024-01-11T11:08:54.678Z,66.68
2024-01-11T11:09:58.721Z,63.53
2024-01-11T11:11:06.051Z,65.10
2024-01-11T11:12:10.087Z,63.87
2024-01-11T11:13:16.231Z,61.63
2024-01-11T11:14:21.007Z,64.00
2024-01-11T11:15:25.182Z,64.30
2024-01-11T11:16:28.350Z,63.45
2024-01-11T11:17:31.717Z,66.12
2024-01-11T11:18:39.215Z,72.95
2024-01-11T11:19:42.765Z,76.03
2024-01-11T11:20:47.153Z,72.10
2024-01-11T11:21:51.648Z,71.85
2024-01-11T11:23:06.158Z,68.32
2024-01-11T11:24:08.928Z,63.05
2024-01-11T11:25:12.250Z,65.28
2024-01-11T11:26:21.727Z,60.70
2024-01-11T11:27:24.693Z,60.38
2024-01-11T11:28:27.984Z,62.95
2024-01-11T11:29:30.887Z,57.08
2024-01-11T11:30:37.622Z,59.53
2024-01-11T11:31:44.684Z,60.03
2024-01-11T11:32:47.836Z,59.05
2024-01-11T11:33:51.500Z,54.72
2024-01-11T11:34:54.933Z,55.80
2024-01-11T11:36:01.200Z,59.63
2024-01-11T11:37:04.491Z,66.60
2024-01-11T11:38:07.721Z,71.18
2024-01-11T11:39:14.738Z,68.30
2024-01-11T11:40:17.996Z,66.30
2024-01-11T11:41:21.949Z,68.05
2024-01-11T11:42:25.755Z,61.42
2024-01-11T11:43:30.150Z,63.80
2024-01-11T11:44:33.749Z,60.67
2024-01-11T11:45:38.150Z,67.75
2024-01-11T11:46:41.081Z,66.78
2024-01-11T11:47:47.251Z,62.57
2024-01-11T11:48:52.444Z,62.42
2024-01-11T11:50:15.209Z,58.95
2024-01-11T11:51:20.761Z,58.17
2024-01-11T11:52:24.249Z,58.85
2024-01-11T11:53:27.073Z,57.33
2024-01-11T11:54:30.281Z,57.78
2024-01-11T11:55:35.656Z,57.17
2024-01-11T11:56:39.064Z,58.95
2024-01-11T11:57:44.498Z,57.53
2024-01-11T11:58:48.244Z,57.13
2024-01-11T11:59:51.928Z,61.70
2024-01-11T12:00:56.305Z,56.28
2024-01-11T12:02:00.588Z,64.37
2024-01-11T12:03:05.197Z,61.37
2024-01-11T12:04:09.527Z,62.33
2024-01-11T12:05:12.596Z,59.42
2024-01-11T12:06:17.584Z,64.95
2024-01-11T12:07:24.301Z,58.60
2024-01-11T12:08:27.324Z,60.90
2024-01-11T12:09:30.562Z,57.47
2024-01-11T12:10:33.520Z,56.75
2024-01-11T12:11:36.213Z,62.88
2024-01-11T12:12:39.943Z,61.90
2024-01-11T12:13:44.081Z,56.10
2024-01-11T12:14:47.661Z,59.97
2024-01-11T12:15:50.694Z,57.42
2024-01-11T12:16:59.773Z,58.90
2024-01-11T12:18:02.910Z,57.65
2024-01-11T12:19:07.800Z,61.10
2024-01-11T12:20:11.226Z,59.97
2024-01-11T12:21:15.189Z,64.05
2024-01-11T12:22:18.514Z,62.47
2024-01-11T12:23:22.101Z,62.38
2024-01-11T12:24:25.096Z,60.28
2024-01-11T12:25:28.400Z,59.83
2024-01-11T12:26:31.416Z,62.92
2024-01-11T12:27:34.177Z,64.43
2024-01-11T12:28:37.600Z,61.13
2024-01-11T12:29:48.683Z,61.97
2024-01-11T12:30:58.404Z,66.47
2024-01-11T12:32:02.001Z,61.58
2024-01-11T12:33:06.774Z,60.97
2024-01-11T12:34:11.047Z,59.15
2024-01-11T12:35:14.248Z,61.33
2024-01-11T12:36:17.424Z,66.50
2024-01-11T12:37:21.310Z,60.55
2024-01-11T12:38:24.243Z,59.22
2024-01-11T12:39:27.977Z,60.65
2024-01-11T12:40:33.893Z,62.50
2024-01-11T12:41:37.518Z,61.13
2024-01-11T12:42:40.303Z,63.08
2024-01-11T12:43:43.608Z,63.53
2024-01-11T12:44:52.973Z,61.53
2024-01-11T12:45:57.367Z,64.35
2024-01-11T12:47:00.354Z,66.90
2024-01-11T12:48:05.164Z,65.60
2024-01-11T12:49:11.482Z,66.93
2024-01-11T12:50:14.570Z,64.20
2024-01-11T12:51:21.739Z,60.10
2024-01-11T12:52:28.510Z,61.13
2024-01-11T12:53:31.302Z,65.20
2024-01-11T12:54:34.968Z,63.90
2024-01-11T12:55:48.093Z,63.97
2024-01-11T12:56:57.577Z,66.97
2024-01-11T12:58:12.825Z,61.85
2024-01-11T12:59:17.613Z,62.72
2024-01-11T13:00:20.761Z,60.53
2024-01-11T13:01:23.795Z,64.60
2024-01-11T13:02:26.620Z,65.45
2024-01-11T13:03:29.785Z,61.87
2024-01-11T13:04:32.834Z,62.05
2024-01-11T13:05:39.034Z,62.62
2024-01-11T13:06:42.194Z,67.87
2024-01-11T13:07:45.217Z,68.15
2024-01-11T13:08:49.227Z,71.00
2024-01-11T13:09:52.222Z,65.55
2024-01-11T13:10:54.795Z,67.70
2024-01-11T13:11:57.777Z,60.58
2024-01-11T13:13:08.844Z,62.83
2024-01-11T13:14:20.192Z,66.47
2024-01-11T13:15:24.620Z,63.60
2024-01-11T13:16:27.475Z,63.03
2024-01-11T13:17:30.843Z,71.75
2024-01-11T13:18:34.111Z,71.70
2024-01-11T13:19:36.950Z,72.18
2024-01-11T13:20:39.746Z,76.43
2024-01-11T13:21:42.771Z,70.07
2024-01-11T13:22:47.921Z,68.53
2024-01-11T13:23:50.783Z,75.93
2024-01-11T13:24:53.722Z,74.00
2024-01-11T13:25:56.721Z,67.85
2024-01-11T13:26:59.627Z,66.82
2024-01-11T13:28:02.720Z,63.90
2024-01-11T13:29:05.385Z,65.75
2024-01-11T13:30:09.509Z,68.97
2024-01-11T13:31:12.304Z,66.15
2024-01-11T13:32:15.350Z,69.35
2024-01-11T13:33:19.445Z,71.85
2024-01-11T13:34:22.573Z,64.93
2024-01-11T13:35:25.515Z,71.50
2024-01-11T13:36:28.464Z,70.07
2024-01-11T13:37:31.236Z,65.53
2024-01-11T13:38:34.628Z,70.53
2024-01-11T13:39:37.532Z,70.65
2024-01-11T13:40:41.415Z,70.82
2024-01-11T13:41:45.507Z,68.60